メインページ
METAR-TAF:

METAR-TAF

空港 :

チュニス, チュニジア

チュニス・カルタゴ国際空港

緯度: 36-50N, 経度: 010-14E, 海抜: 3m

現時点の気象観測

当レポートは12分前の09:30(UTC)に作成
北/北西の風 8kt
気温 17°C
湿度 77%
気圧 1020 hPa
視程10km以上
高度2300ftの雲は散在している

METAR: DTTA 250930Z 34008KT 9999 SCT023 17/13 Q1020

時間: 10:42 (09:42 UTC)

予報

当レポートは4時間42分前の05:00(UTC)に作成
予報は25日の 06時(UTC)から 26日の 06時(UTC)まで有効
西/北西の風 6kt
視程10km以上
高度2600ftの雲は散在している
25日の 10時(UTC)から 25日の 12時(UTC)まで徐々に
の風 17kt
高度2300ftの千切れ雲あり
確率 40%
25日の 12時(UTC)から 25日の 20時(UTC)まで
視程: 3000m
高度1500ftの千切れ雲あり
小雨
26日の 02時(UTC)から 26日の 04時(UTC)まで徐々に
の風 7kt

TAF: DTTA 250500Z 2506/2606 29006KT 9999 SCT026 BECMG 2510/2512 35017KT BKN023 PROB40 2512/2520 3000 -RA BKN015 BECMG 2602/2604 35007KT

4,000以上の空港の気象観測と天気予報(METAR報とTAF報)

利用可能な観測所は地図上に黄色い丸と赤い丸で示す。

丸の上にカーソルを重ねると観測所名を参照できる。

次にクリックすると気象観測と天気予報を参照できる。

マップの切り替え:黒色「×」印の緑ボタンをクリックして拡大、「-」印の緑ボタンをクリックして縮小、緑色の三角印をクリックして隣りの地図に切り替え


METAR-TAF: